Česky Dansk Deutsch English Español Suomi Français Magyar Italiano Nederlands norsk Polski Português svenska Türkçe

 

Het Weer

Oslo / Gardermoen (Noorwegen)

19:20, 21 augustus 2016 (GMT)

NWNNE
WE
SWSSE
Home            
Oslo / Gardermoen Oslo / Fornebu Rygge Oseberg Torp Notodden Fagernes Leirin Skien-Geiteryggen Dagali Karlstad Karlstad Flygplats Siljan / Mora Satenas Trollhattan Private Sogndal / Haukasen Borlange Orebro Private Skovde Flygplats Voss-Bo Roros Lufthavn Goteborg / Save Kristiansand / Kjevik Goteborg / Landvetter

Om een weerknop op uw website of weblog te plaatsen, copieer onderstaande code en plak die in uw pagina. In het eerste vakje staat HTML-code, in het tweede vakje UBB-code.


Add to Google

Details

Wind speed:1 bf, 3 kn, 1.5 m/s, 3.5 miles/h, 5.6 km/h
Wind direction:SSW, 210°
Visibility:Greater than 10000 m, 10 km, 32800 ft, 6.2 miles
Clouds:CAVOC
Temperature:15°C, 59°F
Dew-point:11°C, 52°F
Atmospheric pressure:1015 hPa, 761.3 mmHg, 29.97 inHg, 1.002 atm
Relative humidity:77.0 %
METAR:ENGM 211920Z 21003KT CAVOK 15/11 Q1015 NOSIG

Snelkoppelingen

Actuele weersinformatie van de hele wereld. Voeg locaties toe met het plus (+) symbool. Deze snelkoppelingen kunnen worden toegevoegd aan Google.

Lid van de Technetium groep

website free tracking
StatCounter NetStat W3C Validator

05-10-2022 08:10:11
astro.technetium.be money.technetium.be phote.technetium.be tafeltennistafel.technetium.be www.ligfiets.net